EZY251 LEAM-EGKK
Flight info
| Callsign | EZY251 |
|---|---|
| Flight time | N/A |
| Altitude | 38000 |
| Route | ESILA N865 VTB N867 NENEM DCT PEXOD DCT YURZI DCT ERIGA DCT ARTIV DCT REVTU/N0448F340 UP88 VASUX |
| Aircraft | A20N/M-SDE2E3FGHIRWXY/LB1 |
Departure
| Time | 2026-04-30 12:07 |
|---|---|
| Airport | Almería Airport (LEAM) |
Arrival
| Time | N/A |
|---|---|
| Airport | London Gatwick Airport (EGKK) |
| Time | Latitude | Longitude | Altitude | Speed | Heading |
|---|---|---|---|---|---|
| 2026-04-30 12:06 | 36.84871 | -2.35331 | 71 ft | 14 kts | 175° |
| 2026-04-30 12:06 | 36.84799 | -2.35386 | 77 ft | 13 kts | 262° |
| 2026-04-30 12:06 | 36.84767 | -2.35511 | 69 ft | 18 kts | 247° |
| 2026-04-30 12:06 | 36.84686 | -2.35826 | 70 ft | 71 kts | 253° |
| 2026-04-30 12:07 | 36.84482 | -2.36656 | 57 ft | 129 kts | 252° |
| 2026-04-30 12:07 | 36.84169 | -2.37903 | 141 ft | 164 kts | 250° |
| 2026-04-30 12:07 | 36.83872 | -2.39263 | 792 ft | 165 kts | 252° |
| 2026-04-30 12:07 | 36.83589 | -2.40675 | 1377 ft | 174 kts | 252° |
| 2026-04-30 12:08 | 36.83202 | -2.42197 | 1797 ft | 195 kts | 249° |
| 2026-04-30 12:08 | 36.82743 | -2.43891 | 2270 ft | 217 kts | 250° |
| 2026-04-30 12:08 | 36.82244 | -2.45781 | 2814 ft | 239 kts | 251° |
| 2026-04-30 12:08 | 36.81736 | -2.47775 | 3763 ft | 241 kts | 252° |
| 2026-04-30 12:09 | 36.81239 | -2.49771 | 4831 ft | 241 kts | 253° |
| 2026-04-30 12:09 | 36.80747 | -2.51765 | 5833 ft | 241 kts | 252° |
| 2026-04-30 12:09 | 36.80250 | -2.53785 | 6737 ft | 245 kts | 252° |
| 2026-04-30 12:09 | 36.79747 | -2.55831 | 7638 ft | 248 kts | 252° |
| 2026-04-30 12:10 | 36.79237 | -2.57900 | 8554 ft | 251 kts | 251° |
| 2026-04-30 12:10 | 36.78723 | -2.59987 | 9487 ft | 253 kts | 251° |
| 2026-04-30 12:10 | 36.78207 | -2.62093 | 10377 ft | 256 kts | 253° |
| 2026-04-30 12:10 | 36.78088 | -2.64321 | 11173 ft | 264 kts | 278° |
| 2026-04-30 12:11 | 36.78786 | -2.66514 | 11687 ft | 287 kts | 300° |
| 2026-04-30 12:11 | 36.80022 | -2.68614 | 11997 ft | 313 kts | 306° |
| 2026-04-30 12:11 | 36.81457 | -2.70795 | 12261 ft | 337 kts | 307° |
| 2026-04-30 12:11 | 36.82992 | -2.73104 | 12751 ft | 351 kts | 307° |
| 2026-04-30 12:12 | 36.84543 | -2.75472 | 13608 ft | 354 kts | 306° |
| 2026-04-30 12:12 | 36.86094 | -2.77880 | 14381 ft | 358 kts | 306° |
| 2026-04-30 12:12 | 36.87649 | -2.80323 | 15128 ft | 361 kts | 306° |
| 2026-04-30 12:12 | 36.89214 | -2.82800 | 15850 ft | 365 kts | 306° |
| 2026-04-30 12:13 | 36.90796 | -2.85310 | 16560 ft | 370 kts | 306° |
| 2026-04-30 12:13 | 36.92396 | -2.87853 | 17261 ft | 374 kts | 306° |
| 2026-04-30 12:13 | 36.94011 | -2.90420 | 17931 ft | 378 kts | 306° |
| 2026-04-30 12:13 | 36.95625 | -2.92988 | 18571 ft | 382 kts | 305° |
| 2026-04-30 12:14 | 36.97297 | -2.95649 | 19191 ft | 386 kts | 305° |
| 2026-04-30 12:14 | 36.98938 | -2.98262 | 19802 ft | 389 kts | 305° |
| 2026-04-30 12:14 | 37.00639 | -3.00972 | 20422 ft | 392 kts | 305° |
| 2026-04-30 12:14 | 37.02308 | -3.03635 | 21010 ft | 396 kts | 305° |
| 2026-04-30 12:15 | 37.04014 | -3.06359 | 21616 ft | 399 kts | 304° |
| 2026-04-30 12:15 | 37.05734 | -3.09109 | 22212 ft | 403 kts | 304° |
| 2026-04-30 12:15 | 37.07468 | -3.11883 | 22794 ft | 406 kts | 305° |
| 2026-04-30 12:15 | 37.09220 | -3.14686 | 23352 ft | 411 kts | 305° |
| 2026-04-30 12:16 | 37.10986 | -3.17514 | 23865 ft | 414 kts | 304° |
| 2026-04-30 12:16 | 37.12762 | -3.20361 | 24339 ft | 416 kts | 304° |
| 2026-04-30 12:16 | 37.14550 | -3.23228 | 24816 ft | 418 kts | 304° |
| 2026-04-30 12:16 | 37.16349 | -3.26116 | 25258 ft | 422 kts | 304° |
| 2026-04-30 12:17 | 37.19976 | -3.31948 | 26148 ft | 427 kts | 304° |
| 2026-04-30 12:17 | 37.21806 | -3.34895 | 26589 ft | 429 kts | 304° |
| 2026-04-30 12:17 | 37.23646 | -3.37860 | 26997 ft | 432 kts | 304° |
| 2026-04-30 12:18 | 37.25496 | -3.40842 | 27419 ft | 434 kts | 304° |
| 2026-04-30 12:18 | 37.27356 | -3.43845 | 27830 ft | 437 kts | 304° |
| 2026-04-30 12:18 | 37.29227 | -3.46867 | 28219 ft | 439 kts | 303° |
| 2026-04-30 12:18 | 37.31105 | -3.49905 | 28597 ft | 442 kts | 303° |
| 2026-04-30 12:19 | 37.32994 | -3.52963 | 28966 ft | 445 kts | 303° |
| 2026-04-30 12:19 | 37.34897 | -3.56043 | 29309 ft | 447 kts | 304° |
| 2026-04-30 12:19 | 37.37061 | -3.58900 | 29659 ft | 456 kts | 316° |
| 2026-04-30 12:19 | 37.39707 | -3.61167 | 29992 ft | 466 kts | 328° |
| 2026-04-30 12:20 | 37.42728 | -3.62729 | 30297 ft | 475 kts | 340° |
| 2026-04-30 12:20 | 37.45998 | -3.63504 | 30568 ft | 483 kts | 353° |
| 2026-04-30 12:20 | 37.49370 | -3.63553 | 30876 ft | 487 kts | 360° |
| 2026-04-30 12:20 | 37.52765 | -3.63337 | 31179 ft | 489 kts | 1° |
| 2026-04-30 12:21 | 37.56165 | -3.63128 | 31561 ft | 489 kts | 0° |
| 2026-04-30 12:21 | 37.59563 | -3.62989 | 31969 ft | 488 kts | 359° |
| 2026-04-30 12:21 | 37.62951 | -3.62910 | 32373 ft | 486 kts | 359° |
| 2026-04-30 12:21 | 37.66337 | -3.62866 | 32752 ft | 486 kts | 359° |
| 2026-04-30 12:22 | 37.69711 | -3.62837 | 33137 ft | 485 kts | 359° |
| 2026-04-30 12:22 | 37.73087 | -3.62812 | 33511 ft | 485 kts | 359° |
| 2026-04-30 12:22 | 37.76455 | -3.62787 | 33885 ft | 484 kts | 359° |
| 2026-04-30 12:22 | 37.79818 | -3.62762 | 34220 ft | 483 kts | 359° |
| 2026-04-30 12:23 | 37.83174 | -3.62736 | 34534 ft | 482 kts | 359° |
| 2026-04-30 12:23 | 37.86523 | -3.62708 | 34827 ft | 481 kts | 359° |
| 2026-04-30 12:23 | 37.89869 | -3.62681 | 35114 ft | 480 kts | 359° |
| 2026-04-30 12:23 | 37.93211 | -3.62653 | 35377 ft | 480 kts | 359° |
| 2026-04-30 12:24 | 37.96547 | -3.62626 | 35646 ft | 479 kts | 359° |
| 2026-04-30 12:24 | 37.99879 | -3.62598 | 35920 ft | 479 kts | 359° |
| 2026-04-30 12:24 | 38.03209 | -3.62570 | 36172 ft | 478 kts | 359° |
| 2026-04-30 12:24 | 38.06535 | -3.62543 | 36435 ft | 477 kts | 359° |
| 2026-04-30 12:25 | 38.09857 | -3.62514 | 36679 ft | 477 kts | 359° |
| 2026-04-30 12:25 | 38.13129 | -3.62487 | 36917 ft | 476 kts | 359° |
| 2026-04-30 12:25 | 38.16441 | -3.62367 | 37145 ft | 477 kts | 3° |
| 2026-04-30 12:25 | 38.19746 | -3.62034 | 37373 ft | 477 kts | 3° |
| 2026-04-30 12:26 | 38.23051 | -3.61713 | 37595 ft | 476 kts | 2° |
| 2026-04-30 12:26 | 38.26353 | -3.61396 | 37811 ft | 476 kts | 2° |
| 2026-04-30 12:26 | 38.29652 | -3.61080 | 38006 ft | 475 kts | 2° |
| 2026-04-30 12:26 | 38.32953 | -3.60762 | 38054 ft | 475 kts | 2° |
| 2026-04-30 12:27 | 38.39528 | -3.60126 | 38060 ft | 473 kts | 2° |
| 2026-04-30 12:27 | 38.46092 | -3.59489 | 38063 ft | 474 kts | 2° |
| 2026-04-30 12:28 | 38.52662 | -3.58851 | 38060 ft | 473 kts | 2° |
| 2026-04-30 12:28 | 38.59225 | -3.58212 | 38058 ft | 473 kts | 2° |
| 2026-04-30 12:29 | 38.65790 | -3.57572 | 38065 ft | 473 kts | 2° |
| 2026-04-30 12:29 | 38.72351 | -3.56930 | 38064 ft | 473 kts | 2° |
| 2026-04-30 12:30 | 38.78917 | -3.56287 | 38065 ft | 473 kts | 2° |
| 2026-04-30 12:30 | 38.85479 | -3.55643 | 38066 ft | 473 kts | 2° |
| 2026-04-30 12:31 | 38.92039 | -3.54999 | 38061 ft | 472 kts | 2° |
| 2026-04-30 12:31 | 38.98546 | -3.54358 | 38057 ft | 472 kts | 2° |
| 2026-04-30 12:32 | 39.05097 | -3.53711 | 38057 ft | 472 kts | 2° |
| 2026-04-30 12:32 | 39.11647 | -3.53060 | 38067 ft | 472 kts | 2° |
| 2026-04-30 12:33 | 39.18197 | -3.52409 | 38075 ft | 472 kts | 2° |
| 2026-04-30 12:33 | 39.24750 | -3.51756 | 38076 ft | 472 kts | 2° |
| 2026-04-30 12:34 | 39.31305 | -3.51103 | 38080 ft | 472 kts | 2° |
| 2026-04-30 12:34 | 39.37845 | -3.50449 | 38080 ft | 470 kts | 2° |
| 2026-04-30 12:35 | 39.44368 | -3.49795 | 38081 ft | 471 kts | 2° |
| 2026-04-30 12:35 | 39.50893 | -3.49141 | 38064 ft | 470 kts | 2° |
| 2026-04-30 12:36 | 39.57416 | -3.48485 | 38076 ft | 470 kts | 2° |
| 2026-04-30 12:36 | 39.63934 | -3.47829 | 38082 ft | 470 kts | 2° |
| 2026-04-30 12:37 | 39.70449 | -3.47172 | 38080 ft | 469 kts | 2° |
| 2026-04-30 12:37 | 39.76961 | -3.46514 | 38074 ft | 469 kts | 2° |
| 2026-04-30 12:38 | 39.83441 | -3.45319 | 38075 ft | 471 kts | 6° |
| 2026-04-30 12:38 | 39.89914 | -3.44031 | 38078 ft | 471 kts | 6° |
| 2026-04-30 12:39 | 39.96384 | -3.42742 | 38088 ft | 470 kts | 6° |
| 2026-04-30 12:39 | 40.02855 | -3.41445 | 38083 ft | 470 kts | 6° |
| 2026-04-30 12:40 | 40.09320 | -3.40145 | 38096 ft | 470 kts | 6° |
| 2026-04-30 12:40 | 40.15781 | -3.38843 | 38091 ft | 470 kts | 6° |
| 2026-04-30 12:41 | 40.22238 | -3.37540 | 38095 ft | 469 kts | 5° |
| 2026-04-30 12:41 | 40.28691 | -3.36235 | 38100 ft | 469 kts | 5° |
| 2026-04-30 12:42 | 40.35094 | -3.34938 | 38101 ft | 468 kts | 5° |
| 2026-04-30 12:42 | 40.41530 | -3.33632 | 38107 ft | 468 kts | 5° |
| 2026-04-30 12:43 | 40.47958 | -3.32324 | 38106 ft | 467 kts | 5° |
| 2026-04-30 12:43 | 40.54382 | -3.31015 | 38102 ft | 467 kts | 5° |
| 2026-04-30 12:44 | 40.60791 | -3.29707 | 38098 ft | 466 kts | 5° |
| 2026-04-30 12:44 | 40.67190 | -3.28398 | 38096 ft | 465 kts | 5° |
| 2026-04-30 12:45 | 40.73581 | -3.27088 | 38089 ft | 464 kts | 5° |
| 2026-04-30 12:45 | 40.79959 | -3.25778 | 38091 ft | 463 kts | 5° |
| 2026-04-30 12:46 | 40.86327 | -3.24467 | 38085 ft | 463 kts | 5° |
| 2026-04-30 12:46 | 40.92678 | -3.23058 | 38082 ft | 463 kts | 6° |
| 2026-04-30 12:47 | 40.99026 | -3.21618 | 38083 ft | 462 kts | 5° |
| 2026-04-30 12:47 | 41.05364 | -3.20191 | 38073 ft | 461 kts | 5° |
| 2026-04-30 12:48 | 41.10623 | -3.19011 | 38081 ft | 461 kts | 5° |
| 2026-04-30 12:48 | 41.16952 | -3.17588 | 38080 ft | 461 kts | 5° |
| 2026-04-30 12:49 | 41.23283 | -3.16161 | 38082 ft | 461 kts | 5° |
| 2026-04-30 12:49 | 41.29604 | -3.14735 | 38078 ft | 461 kts | 5° |
| 2026-04-30 12:50 | 41.35923 | -3.13306 | 38084 ft | 461 kts | 5° |
| 2026-04-30 12:50 | 41.42237 | -3.11875 | 38075 ft | 460 kts | 5° |
| 2026-04-30 12:51 | 41.48550 | -3.10441 | 38067 ft | 460 kts | 5° |
| 2026-04-30 12:51 | 41.54854 | -3.09007 | 38078 ft | 459 kts | 5° |
| 2026-04-30 12:52 | 41.61150 | -3.07571 | 38073 ft | 459 kts | 5° |
| 2026-04-30 12:52 | 41.67433 | -3.06135 | 38072 ft | 458 kts | 5° |
| 2026-04-30 12:53 | 41.73708 | -3.04699 | 38064 ft | 457 kts | 5° |
| 2026-04-30 12:53 | 41.79979 | -3.03258 | 38066 ft | 457 kts | 5° |
| 2026-04-30 12:54 | 41.86245 | -3.01815 | 38069 ft | 457 kts | 5° |
| 2026-04-30 12:54 | 41.92507 | -3.00371 | 38076 ft | 456 kts | 5° |
| 2026-04-30 12:55 | 41.98766 | -2.98923 | 38062 ft | 456 kts | 5° |
| 2026-04-30 12:55 | 42.04982 | -2.97484 | 38069 ft | 456 kts | 5° |
| 2026-04-30 12:56 | 42.11239 | -2.96032 | 38068 ft | 457 kts | 5° |
| 2026-04-30 12:56 | 42.17504 | -2.94575 | 38074 ft | 457 kts | 5° |
| 2026-04-30 12:57 | 42.23761 | -2.93116 | 38065 ft | 456 kts | 5° |
| 2026-04-30 12:57 | 42.30019 | -2.91655 | 38064 ft | 455 kts | 4° |
| 2026-04-30 12:58 | 42.36266 | -2.90195 | 38066 ft | 457 kts | 5° |
| 2026-04-30 12:58 | 42.42523 | -2.88738 | 38061 ft | 455 kts | 3° |
| 2026-04-30 12:59 | 42.48777 | -2.88257 | 38060 ft | 447 kts | 352° |
| 2026-04-30 12:59 | 42.54990 | -2.88596 | 38057 ft | 446 kts | 352° |
| 2026-04-30 13:00 | 42.61195 | -2.88898 | 38061 ft | 446 kts | 352° |
| 2026-04-30 13:00 | 42.67392 | -2.89213 | 38062 ft | 445 kts | 352° |
| 2026-04-30 13:01 | 42.73581 | -2.89536 | 38064 ft | 445 kts | 352° |
| 2026-04-30 13:01 | 42.79776 | -2.89861 | 38067 ft | 445 kts | 352° |
| 2026-04-30 13:02 | 42.85973 | -2.90185 | 38071 ft | 445 kts | 352° |
| 2026-04-30 13:02 | 42.92161 | -2.90512 | 38067 ft | 445 kts | 352° |
| 2026-04-30 13:03 | 42.98346 | -2.90838 | 38062 ft | 445 kts | 352° |
| 2026-04-30 13:03 | 43.04524 | -2.91165 | 38060 ft | 445 kts | 352° |
| 2026-04-30 13:04 | 43.10707 | -2.91493 | 38069 ft | 445 kts | 352° |
| 2026-04-30 13:04 | 43.16894 | -2.91820 | 38070 ft | 445 kts | 352° |
| 2026-04-30 13:05 | 43.23038 | -2.92146 | 38073 ft | 445 kts | 353° |
| 2026-04-30 13:06 | 43.32250 | -2.93151 | 38072 ft | 439 kts | 344° |
| 2026-04-30 13:06 | 43.38193 | -2.94990 | 38076 ft | 438 kts | 342° |
| 2026-04-30 13:07 | 43.44146 | -2.96823 | 38064 ft | 438 kts | 342° |
| 2026-04-30 13:07 | 43.50091 | -2.98671 | 38069 ft | 438 kts | 342° |
| 2026-04-30 13:08 | 43.56037 | -3.00532 | 38073 ft | 438 kts | 342° |
| 2026-04-30 13:08 | 43.61982 | -3.02398 | 38077 ft | 438 kts | 342° |
| 2026-04-30 13:09 | 43.67931 | -3.04269 | 38079 ft | 439 kts | 343° |
| 2026-04-30 13:09 | 43.73905 | -3.06043 | 38082 ft | 440 kts | 344° |
| 2026-04-30 13:10 | 43.79901 | -3.07738 | 38082 ft | 440 kts | 344° |
| 2026-04-30 13:10 | 43.85898 | -3.09456 | 38087 ft | 440 kts | 344° |
| 2026-04-30 13:11 | 43.91900 | -3.11189 | 38090 ft | 441 kts | 344° |
| 2026-04-30 13:11 | 43.97906 | -3.12930 | 38098 ft | 441 kts | 344° |
| 2026-04-30 13:12 | 44.03966 | -3.14401 | 38102 ft | 445 kts | 351° |
| 2026-04-30 13:12 | 44.10181 | -3.14489 | 38101 ft | 450 kts | 1° |
| 2026-04-30 13:13 | 44.19503 | -3.13538 | 38111 ft | 450 kts | 1° |
| 2026-04-30 13:14 | 44.28914 | -3.12582 | 38107 ft | 450 kts | 1° |
| 2026-04-30 13:14 | 44.38248 | -3.11613 | 38115 ft | 450 kts | 1° |
| 2026-04-30 13:15 | 44.47581 | -3.10641 | 38101 ft | 448 kts | 1° |
| 2026-04-30 13:16 | 44.53800 | -3.09992 | 38099 ft | 448 kts | 1° |
| 2026-04-30 13:16 | 44.60014 | -3.09342 | 38093 ft | 448 kts | 1° |
| 2026-04-30 13:17 | 44.69334 | -3.08364 | 38098 ft | 448 kts | 2° |
| 2026-04-30 13:18 | 44.78658 | -3.07383 | 38099 ft | 448 kts | 2° |
| 2026-04-30 13:18 | 44.87985 | -3.06398 | 38094 ft | 448 kts | 2° |
| 2026-04-30 13:19 | 44.94199 | -3.05740 | 38094 ft | 448 kts | 2° |
| 2026-04-30 13:19 | 45.00418 | -3.05080 | 38092 ft | 448 kts | 2° |
| 2026-04-30 13:20 | 45.06636 | -3.04419 | 38091 ft | 448 kts | 2° |
| 2026-04-30 13:20 | 45.12816 | -3.03760 | 38089 ft | 448 kts | 2° |
| 2026-04-30 13:21 | 45.19035 | -3.03096 | 38087 ft | 448 kts | 2° |
| 2026-04-30 13:22 | 45.28361 | -3.01951 | 38083 ft | 449 kts | 7° |
| 2026-04-30 13:22 | 45.37375 | -2.98210 | 38080 ft | 453 kts | 22° |
| 2026-04-30 13:23 | 45.46038 | -2.92827 | 38081 ft | 453 kts | 22° |
| 2026-04-30 13:24 | 45.57604 | -2.85605 | 38074 ft | 454 kts | 22° |
| 2026-04-30 13:25 | 45.69194 | -2.78312 | 38071 ft | 456 kts | 23° |
| 2026-04-30 13:26 | 45.83732 | -2.69119 | 38076 ft | 458 kts | 23° |
| 2026-04-30 13:28 | 45.98288 | -2.59860 | 38076 ft | 457 kts | 24° |
| 2026-04-30 13:28 | 46.07015 | -2.54284 | 38075 ft | 457 kts | 24° |
| 2026-04-30 13:29 | 46.18850 | -2.47739 | 38075 ft | 456 kts | 12° |
| 2026-04-30 13:31 | 46.34560 | -2.44826 | 38073 ft | 455 kts | 6° |
| 2026-04-30 13:32 | 46.50259 | -2.42238 | 38068 ft | 455 kts | 6° |
| 2026-04-30 13:33 | 46.62854 | -2.40159 | 38061 ft | 456 kts | 6° |
| 2026-04-30 13:34 | 46.72310 | -2.38592 | 38059 ft | 456 kts | 7° |
| 2026-04-30 13:35 | 46.84934 | -2.36490 | 38057 ft | 457 kts | 7° |
| 2026-04-30 13:36 | 46.97495 | -2.33620 | 38062 ft | 457 kts | 10° |
| 2026-04-30 13:36 | 47.06916 | -2.31329 | 38065 ft | 458 kts | 9° |
| 2026-04-30 13:37 | 47.15281 | -2.29326 | 38077 ft | 458 kts | 9° |
| 2026-04-30 13:38 | 47.24718 | -2.27058 | 38085 ft | 458 kts | 9° |
| 2026-04-30 13:39 | 47.37291 | -2.24024 | 38076 ft | 458 kts | 9° |
| 2026-04-30 13:40 | 47.46721 | -2.21738 | 38071 ft | 458 kts | 9° |
| 2026-04-30 13:40 | 47.53007 | -2.20209 | 38061 ft | 458 kts | 9° |
| 2026-04-30 13:41 | 47.59295 | -2.18676 | 38062 ft | 458 kts | 9° |
| 2026-04-30 13:41 | 47.65581 | -2.17141 | 38049 ft | 458 kts | 9° |
| 2026-04-30 13:42 | 47.71868 | -2.15601 | 38045 ft | 458 kts | 10° |
| 2026-04-30 13:42 | 47.81296 | -2.13284 | 38044 ft | 458 kts | 10° |
| 2026-04-30 13:43 | 47.87546 | -2.11744 | 38050 ft | 458 kts | 10° |
| 2026-04-30 13:43 | 47.93833 | -2.10190 | 38054 ft | 458 kts | 10° |
| 2026-04-30 13:44 | 48.00119 | -2.08634 | 38058 ft | 458 kts | 10° |
| 2026-04-30 13:44 | 48.06412 | -2.07072 | 38058 ft | 458 kts | 10° |
| 2026-04-30 13:45 | 48.15841 | -2.04724 | 38056 ft | 458 kts | 10° |
| 2026-04-30 13:46 | 48.22129 | -2.03154 | 38055 ft | 458 kts | 10° |
| 2026-04-30 13:46 | 48.28410 | -2.01581 | 38051 ft | 457 kts | 10° |
| 2026-04-30 13:47 | 48.34682 | -2.00007 | 38045 ft | 457 kts | 10° |
| 2026-04-30 13:47 | 48.40954 | -1.98427 | 38048 ft | 457 kts | 10° |
| 2026-04-30 13:48 | 48.41338 | -1.98330 | 38049 ft | 457 kts | 10° |